createdAt,value
2023-01-13T00:00:22.301Z,10.16
2023-01-13T00:02:56.275Z,10.15
2023-01-13T00:05:29.995Z,10.16
2023-01-13T00:08:06.315Z,10.17
2023-01-13T00:10:40.178Z,10.15
2023-01-13T00:13:13.685Z,10.15
2023-01-13T00:15:56.969Z,10.14
2023-01-13T00:18:30.827Z,10.14
2023-01-13T00:21:06.326Z,10.10
2023-01-13T00:23:42.000Z,10.08
2023-01-13T00:26:18.136Z,10.00
2023-01-13T00:28:51.838Z,9.96
2023-01-13T00:31:25.818Z,9.91
2023-01-13T00:34:00.642Z,9.78
2023-01-13T00:36:34.351Z,9.70
2023-01-13T00:39:09.265Z,9.65
2023-01-13T00:42:00.246Z,9.59
2023-01-13T00:44:33.922Z,9.52
2023-01-13T00:47:07.677Z,9.46
2023-01-13T00:49:41.273Z,9.40
2023-01-13T00:52:14.936Z,9.36
2023-01-13T00:54:49.741Z,9.26
2023-01-13T00:57:23.520Z,9.17
2023-01-13T00:59:57.018Z,9.04
2023-01-13T01:02:30.856Z,8.96
2023-01-13T01:05:04.410Z,8.92
2023-01-13T01:07:38.344Z,8.81
2023-01-13T01:10:13.718Z,8.72
2023-01-13T01:12:47.385Z,8.68
2023-01-13T01:15:20.831Z,8.68
2023-01-13T01:17:54.524Z,8.72
2023-01-13T01:20:28.046Z,8.73
2023-01-13T01:23:01.968Z,8.73
2023-01-13T01:25:36.767Z,8.75
2023-01-13T01:28:10.504Z,8.77
2023-01-13T01:30:43.999Z,8.80
2023-01-13T01:33:17.939Z,8.77
2023-01-13T01:35:51.401Z,8.74
2023-01-13T01:38:25.134Z,8.69
2023-01-13T01:41:00.027Z,8.67
2023-01-13T01:44:02.426Z,8.70
2023-01-13T01:46:38.863Z,8.65
2023-01-13T01:49:17.645Z,8.70
2023-01-13T01:51:54.834Z,8.73
2023-01-13T01:54:36.383Z,8.80
2023-01-13T01:57:16.208Z,8.74
2023-01-13T01:59:50.537Z,8.78
2023-01-13T02:02:24.427Z,8.74
2023-01-13T02:04:59.062Z,8.74
2023-01-13T02:07:35.270Z,8.67
2023-01-13T02:10:12.486Z,8.61
2023-01-13T02:12:49.560Z,8.61
2023-01-13T02:15:28.419Z,8.55
2023-01-13T02:18:25.094Z,8.53
2023-01-13T02:21:20.438Z,8.47
2023-01-13T02:24:46.653Z,8.49
2023-01-13T02:27:45.839Z,8.46
2023-01-13T02:30:48.547Z,8.56
2023-01-13T02:33:35.318Z,8.63
2023-01-13T02:36:17.824Z,8.64
2023-01-13T02:38:57.612Z,8.62
2023-01-13T02:41:57.084Z,8.57
2023-01-13T02:44:38.291Z,8.57
2023-01-13T02:47:20.528Z,8.56
2023-01-13T02:49:59.292Z,8.61
2023-01-13T02:52:37.718Z,8.53
2023-01-13T02:55:15.441Z,8.53
2023-01-13T02:57:50.878Z,8.50
2023-01-13T03:00:25.309Z,8.47
2023-01-13T03:03:00.795Z,8.44
2023-01-13T03:05:35.050Z,8.35
2023-01-13T03:08:23.882Z,8.34
2023-01-13T03:11:03.789Z,8.35
2023-01-13T03:13:56.875Z,8.38
2023-01-13T03:16:44.474Z,8.39
2023-01-13T03:19:30.178Z,8.43
2023-01-13T03:22:15.629Z,8.39
2023-01-13T03:24:52.902Z,8.37
2023-01-13T03:27:32.055Z,8.34
2023-01-13T03:30:08.209Z,8.35
2023-01-13T03:32:45.297Z,8.43
2023-01-13T03:35:24.800Z,8.37
2023-01-13T03:38:03.968Z,8.41
2023-01-13T03:40:40.356Z,8.36
2023-01-13T03:43:36.941Z,8.34
2023-01-13T03:46:15.869Z,8.32
2023-01-13T03:48:53.799Z,8.25
2023-01-13T03:51:32.407Z,8.24
2023-01-13T03:54:10.007Z,8.26
2023-01-13T03:56:46.489Z,8.20
2023-01-13T03:59:24.679Z,8.24
2023-01-13T04:02:02.835Z,8.08
2023-01-13T04:04:41.866Z,8.03
2023-01-13T04:07:22.978Z,8.07
2023-01-13T04:10:00.263Z,7.97
2023-01-13T04:12:53.559Z,7.93
2023-01-13T04:15:29.854Z,7.86
2023-01-13T04:18:10.564Z,7.88
2023-01-13T04:20:46.274Z,7.91
2023-01-13T04:23:22.666Z,7.92
2023-01-13T04:26:05.820Z,7.91
2023-01-13T04:28:40.745Z,8.05
2023-01-13T04:31:14.551Z,7.99
2023-01-13T04:33:48.053Z,7.96
2023-01-13T04:36:25.112Z,8.02
2023-01-13T04:39:00.033Z,8.06
2023-01-13T04:41:54.792Z,8.06
2023-01-13T04:44:28.514Z,8.04
2023-01-13T04:47:02.653Z,8.11
2023-01-13T04:49:36.218Z,8.08
2023-01-13T04:52:10.081Z,8.11
2023-01-13T04:54:44.993Z,8.11
2023-01-13T04:57:18.691Z,8.09
2023-01-13T04:59:52.385Z,8.09
2023-01-13T05:02:26.162Z,8.11
2023-01-13T05:04:59.739Z,8.07
2023-01-13T05:07:34.046Z,8.10
2023-01-13T05:10:10.517Z,8.08
2023-01-13T05:13:02.013Z,8.09
2023-01-13T05:15:53.016Z,8.09
2023-01-13T05:18:27.240Z,8.06
2023-01-13T05:21:00.828Z,8.04
2023-01-13T05:23:51.964Z,8.06
2023-01-13T05:26:27.055Z,8.02
2023-01-13T05:29:00.762Z,8.01
2023-01-13T05:31:34.341Z,7.96
2023-01-13T05:34:08.051Z,7.96
2023-01-13T05:36:41.901Z,7.93
2023-01-13T05:39:15.662Z,7.96
2023-01-13T05:42:19.504Z,7.99
2023-01-13T05:44:53.217Z,8.09
2023-01-13T05:47:27.006Z,8.15
2023-01-13T05:50:00.816Z,8.19
2023-01-13T05:52:34.935Z,8.18
2023-01-13T05:55:09.253Z,8.17
2023-01-13T05:57:44.625Z,8.20
2023-01-13T06:00:19.680Z,8.20
2023-01-13T06:02:53.537Z,8.18
2023-01-13T06:05:27.294Z,8.19
2023-01-13T06:08:01.785Z,8.24
2023-01-13T06:10:36.564Z,8.20
2023-01-13T06:13:11.505Z,8.17
2023-01-13T06:15:45.542Z,8.13
2023-01-13T06:18:19.140Z,8.04
2023-01-13T06:20:52.914Z,8.06
2023-01-13T06:23:26.399Z,8.02
2023-01-13T06:26:07.073Z,8.04
2023-01-13T06:28:42.052Z,8.07
2023-01-13T06:31:16.084Z,8.10
2023-01-13T06:33:54.008Z,8.10
2023-01-13T06:36:32.493Z,8.12
2023-01-13T06:39:06.169Z,8.12
2023-01-13T06:41:55.076Z,8.12
2023-01-13T06:44:30.315Z,8.11
2023-01-13T06:47:04.837Z,8.16
2023-01-13T06:49:38.543Z,8.17
2023-01-13T06:52:12.392Z,8.18
2023-01-13T06:54:46.021Z,8.17
2023-01-13T06:57:20.183Z,8.16
2023-01-13T06:59:55.434Z,8.18
2023-01-13T07:02:29.476Z,8.18
2023-01-13T07:05:03.521Z,8.21
2023-01-13T07:07:38.223Z,8.21
2023-01-13T07:10:14.266Z,8.24
2023-01-13T07:13:07.532Z,8.29
2023-01-13T07:15:42.662Z,8.27
2023-01-13T07:18:16.572Z,8.32
2023-01-13T07:20:54.773Z,8.27
2023-01-13T07:23:30.088Z,8.27
2023-01-13T07:26:03.798Z,8.34
2023-01-13T07:28:38.578Z,8.37
2023-01-13T07:31:18.757Z,8.39
2023-01-13T07:33:52.641Z,8.42
2023-01-13T07:36:26.189Z,8.39
2023-01-13T07:38:59.924Z,8.38
2023-01-13T07:41:50.971Z,8.40
2023-01-13T07:44:24.977Z,8.38
2023-01-13T07:47:00.053Z,8.40
2023-01-13T07:49:34.093Z,8.44
2023-01-13T07:52:08.817Z,8.45
2023-01-13T07:54:42.577Z,8.47
2023-01-13T07:57:16.155Z,8.40
2023-01-13T07:59:49.923Z,8.34
2023-01-13T08:02:25.099Z,8.35
2023-01-13T08:04:59.158Z,8.28
2023-01-13T08:07:32.721Z,8.32
2023-01-13T08:10:07.606Z,8.32
2023-01-13T08:12:58.678Z,8.36
2023-01-13T08:15:32.771Z,8.33
2023-01-13T08:18:07.825Z,8.42
2023-01-13T08:20:41.815Z,8.46
2023-01-13T08:23:20.123Z,8.46
2023-01-13T08:25:54.092Z,8.52
2023-01-13T08:28:27.712Z,8.55
2023-01-13T08:31:01.916Z,8.59
2023-01-13T08:33:37.538Z,8.56
2023-01-13T08:36:13.154Z,8.56
2023-01-13T08:38:46.669Z,8.56
2023-01-13T08:41:40.382Z,8.61
2023-01-13T08:44:13.981Z,8.65
2023-01-13T08:46:47.820Z,8.69
2023-01-13T08:49:23.359Z,8.76
2023-01-13T08:51:57.491Z,8.87
2023-01-13T08:54:31.084Z,8.80
2023-01-13T08:57:05.063Z,8.79
2023-01-13T08:59:40.169Z,8.79
2023-01-13T09:02:15.810Z,8.82
2023-01-13T09:04:52.233Z,8.82
2023-01-13T09:07:25.953Z,8.85
2023-01-13T09:09:59.442Z,8.84
2023-01-13T09:12:51.228Z,8.78
2023-01-13T09:15:24.948Z,8.80
2023-01-13T09:17:58.684Z,8.85
2023-01-13T09:20:33.579Z,8.85
2023-01-13T09:23:10.259Z,8.86
2023-01-13T09:25:44.596Z,8.92
2023-01-13T09:28:18.440Z,8.91
2023-01-13T09:30:52.066Z,8.87
2023-01-13T09:33:43.148Z,8.91
2023-01-13T09:36:18.070Z,8.94
2023-01-13T09:38:51.885Z,8.96
2023-01-13T09:41:46.311Z,8.97
2023-01-13T09:44:25.624Z,8.98
2023-01-13T09:47:01.622Z,8.94
2023-01-13T09:49:39.655Z,8.92
2023-01-13T09:52:19.316Z,8.92
2023-01-13T09:54:58.779Z,9.14
2023-01-13T09:57:37.549Z,9.00
2023-01-13T10:00:14.692Z,8.88
2023-01-13T10:03:08.878Z,8.85
2023-01-13T10:05:46.387Z,8.87
2023-01-13T10:08:23.567Z,8.87
2023-01-13T10:11:00.051Z,8.90
2023-01-13T10:13:33.328Z,8.92
2023-01-13T10:16:23.645Z,8.93
2023-01-13T10:19:05.884Z,8.95
2023-01-13T10:22:15.114Z,8.95
2023-01-13T10:25:18.351Z,8.95
2023-01-13T10:27:54.974Z,9.01
2023-01-13T10:30:34.227Z,9.06
2023-01-13T10:33:13.175Z,9.06
2023-01-13T10:35:56.334Z,9.12
2023-01-13T10:38:36.901Z,9.14
2023-01-13T10:41:24.928Z,9.18
2023-01-13T10:44:02.290Z,9.14
2023-01-13T10:46:52.858Z,9.07
2023-01-13T10:49:31.053Z,9.07
2023-01-13T10:52:24.741Z,8.91
2023-01-13T10:54:58.948Z,8.88
2023-01-13T10:57:37.386Z,8.88
2023-01-13T11:00:27.871Z,8.65
2023-01-13T11:03:19.668Z,8.42
2023-01-13T11:05:55.420Z,8.17
2023-01-13T11:08:31.646Z,8.06
2023-01-13T11:11:27.439Z,7.90
2023-01-13T11:14:23.565Z,7.69
2023-01-13T11:17:01.991Z,7.68
2023-01-13T11:19:38.130Z,7.70
2023-01-13T11:22:18.311Z,7.56
2023-01-13T11:24:56.143Z,7.59
2023-01-13T11:27:42.360Z,7.62
2023-01-13T11:30:29.691Z,7.72
2023-01-13T11:33:18.333Z,7.85
2023-01-13T11:36:02.353Z,8.04
2023-01-13T11:38:46.229Z,8.16
2023-01-13T11:41:37.852Z,8.30
2023-01-13T11:44:20.519Z,8.43
2023-01-13T11:46:55.880Z,8.47
2023-01-13T11:49:31.981Z,8.53
2023-01-13T11:52:15.121Z,8.58
2023-01-13T11:55:02.728Z,8.50
2023-01-13T11:58:12.786Z,8.49
2023-01-13T12:01:17.375Z,8.53
2023-01-13T12:04:06.567Z,8.58
2023-01-13T12:06:43.454Z,8.50
2023-01-13T12:09:32.519Z,8.44
2023-01-13T12:12:22.651Z,8.41
2023-01-13T12:15:19.562Z,8.36
2023-01-13T12:18:12.582Z,8.28
2023-01-13T12:21:01.452Z,8.20
2023-01-13T12:23:41.504Z,8.22
2023-01-13T12:26:17.117Z,8.23
2023-01-13T12:28:55.256Z,8.23
2023-01-13T12:31:30.417Z,8.22
2023-01-13T12:34:22.963Z,8.25
2023-01-13T12:37:07.612Z,8.27
2023-01-13T12:39:49.617Z,8.34
2023-01-13T12:42:45.708Z,8.33
2023-01-13T12:45:26.899Z,8.43
2023-01-13T12:48:01.481Z,8.36
2023-01-13T12:51:00.600Z,8.31
2023-01-13T12:53:38.565Z,8.15
2023-01-13T12:56:44.353Z,8.01
2023-01-13T12:59:36.881Z,7.96
2023-01-13T13:02:31.436Z,7.92
2023-01-13T13:05:48.273Z,7.88
2023-01-13T13:08:26.549Z,7.88
2023-01-13T13:11:52.325Z,7.94
2023-01-13T13:15:03.199Z,7.97
2023-01-13T13:17:41.536Z,8.02
2023-01-13T13:20:54.044Z,8.08
2023-01-13T13:23:47.850Z,8.12
2023-01-13T13:26:42.619Z,8.21
2023-01-13T13:29:45.107Z,8.31
2023-01-13T13:32:53.716Z,8.34
2023-01-13T13:35:38.881Z,8.35
2023-01-13T13:38:41.772Z,8.37
2023-01-13T13:41:38.109Z,8.38
2023-01-13T13:44:37.877Z,8.18
2023-01-13T13:47:11.914Z,7.85
2023-01-13T13:49:49.856Z,7.74
2023-01-13T13:52:29.963Z,7.70
2023-01-13T13:55:08.853Z,7.71
2023-01-13T13:57:47.938Z,7.78
2023-01-13T14:00:26.257Z,7.76
2023-01-13T14:03:01.501Z,7.76
2023-01-13T14:05:37.021Z,7.80
2023-01-13T14:08:16.423Z,7.83
2023-01-13T14:10:50.401Z,7.80
2023-01-13T14:13:25.977Z,7.79
2023-01-13T14:16:04.024Z,7.69
2023-01-13T14:18:48.170Z,7.63
2023-01-13T14:21:26.166Z,7.66
2023-01-13T14:24:04.578Z,7.53
2023-01-13T14:26:39.309Z,7.47
2023-01-13T14:29:19.341Z,7.43
2023-01-13T14:31:55.723Z,7.48
2023-01-13T14:34:33.282Z,7.56
2023-01-13T14:37:25.912Z,7.62
2023-01-13T14:39:59.533Z,7.64
2023-01-13T14:42:35.415Z,7.73
2023-01-13T14:45:24.591Z,7.85
2023-01-13T14:48:02.030Z,7.88
2023-01-13T14:50:35.655Z,7.92
2023-01-13T14:53:28.349Z,7.95
2023-01-13T14:56:22.209Z,8.02
2023-01-13T14:58:56.117Z,8.05
2023-01-13T15:01:31.034Z,8.09
2023-01-13T15:04:28.389Z,8.06
2023-01-13T15:07:02.907Z,7.95
2023-01-13T15:09:41.183Z,7.80
2023-01-13T15:12:18.635Z,7.68
2023-01-13T15:14:52.548Z,7.75
2023-01-13T15:17:26.097Z,7.66
2023-01-13T15:20:03.112Z,7.68
2023-01-13T15:22:37.013Z,7.66
2023-01-13T15:25:11.024Z,7.62
2023-01-13T15:27:46.226Z,7.46
2023-01-13T15:30:24.900Z,7.42
2023-01-13T15:32:59.324Z,7.26
2023-01-13T15:35:43.878Z,7.24
2023-01-13T15:38:19.823Z,7.20
2023-01-13T15:40:53.716Z,7.14
2023-01-13T15:43:44.733Z,7.09
2023-01-13T15:46:37.630Z,7.02
2023-01-13T15:49:21.899Z,6.89
2023-01-13T15:51:57.081Z,6.81
2023-01-13T15:54:30.780Z,6.85
2023-01-13T15:57:04.865Z,6.78
2023-01-13T15:59:38.376Z,6.68
2023-01-13T16:02:15.907Z,6.68
2023-01-13T16:04:50.942Z,6.68
2023-01-13T16:07:26.854Z,6.67
2023-01-13T16:10:01.701Z,6.66
2023-01-13T16:12:37.493Z,6.65
2023-01-13T16:15:14.210Z,6.71
2023-01-13T16:17:48.238Z,6.74
2023-01-13T16:20:22.040Z,6.70
2023-01-13T16:22:57.428Z,6.75
2023-01-13T16:25:31.322Z,6.73
2023-01-13T16:28:05.295Z,6.78
2023-01-13T16:30:39.060Z,6.78
2023-01-13T16:33:13.046Z,6.83
2023-01-13T16:36:10.943Z,6.89
2023-01-13T16:38:42.122Z,6.91
2023-01-13T16:41:16.007Z,6.92
2023-01-13T16:43:50.020Z,6.98
2023-01-13T16:46:26.176Z,6.95
2023-01-13T16:49:03.812Z,6.96
2023-01-13T16:51:37.452Z,7.02
2023-01-13T16:54:12.925Z,6.93
2023-01-13T16:56:46.449Z,6.90
2023-01-13T16:59:21.470Z,6.91
2023-01-13T17:01:55.134Z,6.91
2023-01-13T17:04:29.044Z,6.93
2023-01-13T17:07:05.938Z,6.88
2023-01-13T17:09:41.095Z,6.93
2023-01-13T17:12:14.714Z,6.96
2023-01-13T17:14:48.515Z,6.97
2023-01-13T17:17:26.818Z,6.85
2023-01-13T17:20:00.964Z,6.86
2023-01-13T17:22:34.637Z,6.86
2023-01-13T17:25:12.158Z,6.84
2023-01-13T17:27:45.725Z,6.92
2023-01-13T17:30:19.497Z,6.96
2023-01-13T17:32:53.069Z,7.01
2023-01-13T17:35:26.815Z,7.01
2023-01-13T17:38:01.883Z,7.02
2023-01-13T17:40:37.688Z,7.08
2023-01-13T17:43:11.266Z,7.05
2023-01-13T17:45:45.352Z,7.12
2023-01-13T17:48:19.459Z,7.14
2023-01-13T17:50:53.626Z,7.16
2023-01-13T17:53:28.219Z,7.16
2023-01-13T17:56:03.903Z,7.18
2023-01-13T17:58:38.015Z,7.25
2023-01-13T18:01:14.751Z,7.27
2023-01-13T18:03:48.688Z,7.35
2023-01-13T18:06:24.340Z,7.28
2023-01-13T18:08:59.603Z,7.21
2023-01-13T18:11:34.739Z,7.20
2023-01-13T18:14:09.463Z,7.16
2023-01-13T18:16:43.530Z,7.17
2023-01-13T18:19:34.816Z,7.15
2023-01-13T18:22:30.481Z,7.04
2023-01-13T18:25:22.075Z,6.95
2023-01-13T18:27:57.604Z,6.93
2023-01-13T18:30:31.181Z,6.93
2023-01-13T18:33:04.985Z,6.98
2023-01-13T18:35:39.711Z,6.83
2023-01-13T18:38:14.550Z,6.81
2023-01-13T18:40:48.207Z,6.80
2023-01-13T18:43:22.440Z,6.71
2023-01-13T18:45:56.130Z,6.80
2023-01-13T18:48:32.624Z,6.83
2023-01-13T18:51:06.542Z,6.86
2023-01-13T18:53:40.326Z,6.78
2023-01-13T18:56:15.510Z,6.81
2023-01-13T18:58:52.395Z,6.82
2023-01-13T19:01:27.806Z,6.77
2023-01-13T19:04:03.834Z,6.75
2023-01-13T19:06:42.257Z,6.66
2023-01-13T19:09:16.696Z,6.71
2023-01-13T19:11:51.437Z,6.60
2023-01-13T19:14:37.404Z,6.74
2023-01-13T19:17:13.708Z,6.79
2023-01-13T19:19:50.694Z,6.72
2023-01-13T19:22:28.546Z,6.71
2023-01-13T19:25:03.765Z,6.73
2023-01-13T19:27:37.589Z,6.82
2023-01-13T19:30:14.780Z,6.83
2023-01-13T19:32:48.454Z,6.89
2023-01-13T19:35:22.392Z,6.87
2023-01-13T19:37:56.365Z,6.84
2023-01-13T19:40:30.172Z,6.86
2023-01-13T19:43:21.211Z,6.83
2023-01-13T19:45:56.430Z,6.82
2023-01-13T19:48:30.919Z,6.82
2023-01-13T19:51:05.619Z,6.80
2023-01-13T19:53:39.132Z,6.77
2023-01-13T19:56:15.271Z,6.76
2023-01-13T19:58:50.686Z,6.78
2023-01-13T20:01:31.716Z,6.88
2023-01-13T20:04:07.625Z,6.85
2023-01-13T20:06:41.530Z,6.87
2023-01-13T20:09:15.072Z,6.86
2023-01-13T20:11:52.561Z,6.94
2023-01-13T20:14:26.667Z,6.93
2023-01-13T20:17:01.826Z,6.95
2023-01-13T20:19:35.589Z,6.93
2023-01-13T20:22:10.487Z,6.90
2023-01-13T20:24:44.357Z,6.85
2023-01-13T20:27:19.003Z,6.92
2023-01-13T20:29:52.663Z,6.96
2023-01-13T20:32:27.752Z,7.02
2023-01-13T20:35:01.461Z,6.94
2023-01-13T20:37:35.700Z,7.08
2023-01-13T20:40:14.374Z,6.98
2023-01-13T20:42:48.143Z,7.03
2023-01-13T20:45:28.040Z,7.08
2023-01-13T20:48:05.990Z,7.03
2023-01-13T20:50:40.025Z,6.91
2023-01-13T20:53:13.676Z,6.89
2023-01-13T20:55:47.762Z,6.92
2023-01-13T20:58:21.433Z,6.94
2023-01-13T21:00:59.290Z,6.99
2023-01-13T21:03:34.859Z,7.08
2023-01-13T21:06:09.116Z,7.06
2023-01-13T21:08:42.699Z,6.99
2023-01-13T21:11:37.140Z,7.14
2023-01-13T21:14:32.912Z,7.10
2023-01-13T21:17:07.478Z,7.12
2023-01-13T21:19:41.490Z,7.10
2023-01-13T21:22:15.258Z,7.06
2023-01-13T21:24:48.974Z,7.10
2023-01-13T21:27:23.055Z,7.07
2023-01-13T21:29:56.818Z,7.03
2023-01-13T21:32:30.556Z,7.09
2023-01-13T21:35:06.290Z,7.07
2023-01-13T21:37:41.888Z,7.10
2023-01-13T21:40:15.695Z,6.95
2023-01-13T21:43:06.933Z,7.14
2023-01-13T21:45:57.973Z,7.14
2023-01-13T21:48:31.847Z,7.10
2023-01-13T21:51:07.037Z,7.07
2023-01-13T21:53:40.834Z,6.98
2023-01-13T21:56:14.448Z,7.04
2023-01-13T21:58:48.647Z,7.08
2023-01-13T22:01:22.489Z,6.91
2023-01-13T22:04:14.525Z,6.96
2023-01-13T22:06:49.437Z,7.00
2023-01-13T22:09:23.247Z,7.04
2023-01-13T22:11:57.174Z,6.90
2023-01-13T22:14:31.222Z,6.82
2023-01-13T22:17:05.061Z,6.90
2023-01-13T22:19:42.108Z,6.93
2023-01-13T22:22:18.842Z,6.95
2023-01-13T22:24:54.236Z,6.89
2023-01-13T22:27:28.975Z,6.83
2023-01-13T22:30:02.870Z,6.81
2023-01-13T22:32:38.968Z,6.81
2023-01-13T22:35:14.510Z,6.84
2023-01-13T22:37:49.468Z,6.86
2023-01-13T22:40:23.226Z,6.85
2023-01-13T22:42:56.808Z,6.91
2023-01-13T22:45:30.723Z,6.90
2023-01-13T22:48:04.406Z,6.87
2023-01-13T22:50:38.448Z,6.88
2023-01-13T22:53:13.333Z,6.80
2023-01-13T22:55:54.698Z,6.77
2023-01-13T22:58:28.873Z,6.86
2023-01-13T23:01:10.773Z,6.84
2023-01-13T23:03:46.323Z,6.78
2023-01-13T23:06:21.984Z,6.77
2023-01-13T23:08:57.631Z,6.81
2023-01-13T23:11:31.528Z,6.79
2023-01-13T23:14:07.426Z,6.89
2023-01-13T23:16:42.106Z,6.85
2023-01-13T23:19:15.693Z,6.87
2023-01-13T23:21:49.543Z,6.89
2023-01-13T23:24:25.922Z,6.85
2023-01-13T23:26:59.844Z,6.82
2023-01-13T23:29:33.440Z,6.89
2023-01-13T23:32:07.326Z,6.89
2023-01-13T23:34:40.867Z,6.89
2023-01-13T23:37:14.603Z,6.89
2023-01-13T23:39:49.996Z,6.87
2023-01-13T23:42:23.878Z,6.83
2023-01-13T23:44:57.445Z,6.86
2023-01-13T23:47:31.329Z,6.81
2023-01-13T23:50:05.460Z,6.81
2023-01-13T23:52:39.437Z,6.78
2023-01-13T23:55:14.429Z,6.91
2023-01-13T23:57:48.181Z,6.84
